Time;durP1;ratioP1;P1;durP2;ratioP2;P2;SDS_P1;SDS_P2;PMS_P1;PMS_P2;Temp;Humidity;BMP_temperature;BMP_pressure;BME280_temperature;BME280_humidity;BME280_pressure;Samples;Min_cycle;Max_cycle;Signal;HPM_P1;HPM_P2
2022/05/17 18:57:29;;;;;;;16.23;5.75;;;;;;;23.62;47.57;101606.75;5069657;28;20394;-45
2022/05/17 18:59:55;;;;;;;15.63;5.32;;;;;;;23.58;47.47;101606.84;5068568;28;20546;-43
2022/05/17 19:02:25;;;;;;;16.00;5.47;;;;;;;23.50;49.65;101609.56;5069716;28;20112;-45
2022/05/17 19:04:51;;;;;;;12.60;5.45;;;;;;;23.43;49.15;101613.16;5069220;28;20021;-44
2022/05/17 19:15:29;;;;;;;18.25;5.60;;;;;;;22.92;51.13;101625.03;5068776;28;20507;-43
2022/05/17 19:17:56;;;;;;;19.42;5.47;;;;;;;22.75;51.58;101619.06;5068910;28;20053;-43
2022/05/17 19:20:22;;;;;;;17.17;5.75;;;;;;;22.57;52.15;101622.72;5069470;28;20110;-47
2022/05/17 19:22:47;;;;;;;19.05;6.20;;;;;;;22.46;52.26;101625.44;5068207;28;20079;-44
2022/05/17 19:25:12;;;;;;;17.85;5.65;;;;;;;22.31;53.18;101615.88;5069322;28;20037;-42
2022/05/17 19:27:38;;;;;;;13.73;5.53;;;;;;;22.17;54.09;101623.88;5068550;28;20017;-43
2022/05/17 19:30:05;;;;;;;15.75;5.93;;;;;;;22.04;53.79;101628.31;5068503;28;20031;-44
2022/05/17 19:32:33;;;;;;;17.98;6.20;;;;;;;21.87;55.05;101631.00;5068912;28;20057;-45
2022/05/17 19:34:59;;;;;;;19.38;5.97;;;;;;;21.78;55.69;101636.31;5068092;28;20025;-43
2022/05/17 19:40:14;;;;;;;16.30;6.03;;;;;;;21.41;56.39;101646.88;5069197;28;20040;-48
2022/05/17 19:42:40;;;;;;;15.57;5.85;;;;;;;21.27;56.52;101641.69;5067492;28;20025;-43
2022/05/17 19:45:08;;;;;;;23.27;6.75;;;;;;;21.20;58.37;101643.44;5068603;28;20176;-46
2022/05/17 19:47:45;;;;;;;15.75;6.85;;;;;;;21.11;57.93;101659.19;5068852;28;20043;-44
2022/05/17 19:52:30;;;;;;;15.57;7.68;;;;;;;20.85;59.18;101654.84;5110319;27;20393;-45
2022/05/17 19:54:56;;;;;;;17.30;6.70;;;;;;;20.63;59.90;101657.44;5109858;28;20068;-46
2022/05/17 19:57:24;;;;;;;14.50;6.40;;;;;;;20.42;60.49;101660.88;5109387;28;20386;-44
2022/05/17 19:59:50;;;;;;;16.95;6.35;;;;;;;20.36;59.56;101663.50;5109859;28;20048;-44
2022/05/17 20:02:16;;;;;;;20.42;6.95;;;;;;;20.25;60.81;101671.31;5108826;28;20446;-46
2022/05/17 20:04:43;;;;;;;14.35;6.22;;;;;;;20.22;60.58;101673.94;5109001;28;20458;-43
2022/05/17 20:07:09;;;;;;;20.30;6.73;;;;;;;20.17;60.54;101670.44;5110095;28;20023;-47
2022/05/17 20:09:36;;;;;;;15.57;6.60;;;;;;;19.99;61.56;101664.28;5109924;28;20024;-44
2022/05/17 20:12:03;;;;;;;;;;;;;;;20.05;58.72;101664.28;5109473;28;20020;-46
2022/05/17 20:14:28;;;;;;;16.08;6.90;;;;;;;19.72;62.31;101662.38;5109664;28;19932;-43
2022/05/17 20:16:54;;;;;;;17.60;7.45;;;;;;;19.50;62.86;101664.03;5109662;28;20049;-44
2022/05/17 20:19:20;;;;;;;18.75;7.75;;;;;;;19.37;63.30;101668.31;5109662;28;20031;-43
2022/05/17 20:21:45;;;;;;;18.67;7.57;;;;;;;19.18;64.32;101662.94;5110101;28;20398;-43
2022/05/17 20:24:14;;;;;;;17.83;7.15;;;;;;;19.11;64.89;101661.16;5109523;28;20476;-43
2022/05/17 20:26:40;;;;;;;16.05;7.57;;;;;;;18.95;65.55;101668.00;5110026;28;20024;-43
2022/05/17 20:29:05;;;;;;;13.35;7.43;;;;;;;18.87;66.36;101667.03;5110437;28;20062;-43
2022/05/17 20:31:31;;;;;;;17.48;8.25;;;;;;;18.74;66.06;101671.28;5109519;28;20063;-45
2022/05/17 20:33:56;;;;;;;15.63;7.30;;;;;;;18.67;66.21;101667.75;5110134;28;20028;-46
2022/05/17 20:36:22;;;;;;;23.35;7.57;;;;;;;18.61;67.17;101670.28;5110204;28;20092;-43
2022/05/17 20:38:47;;;;;;;12.90;7.72;;;;;;;18.57;66.92;101678.97;5109075;28;20031;-42
2022/05/17 20:41:14;;;;;;;19.63;8.05;;;;;;;18.51;67.83;101684.09;5109919;28;20536;-44
2022/05/17 20:43:41;;;;;;;16.65;7.25;;;;;;;18.51;67.50;101678.88;5109883;28;20531;-43
2022/05/17 20:48:54;;;;;;;20.00;8.68;;;;;;;18.39;68.25;101674.44;5109779;28;20123;-44
2022/05/17 20:51:19;;;;;;;17.85;8.48;;;;;;;18.32;68.75;101677.81;5109363;28;20135;-43
2022/05/17 20:53:44;;;;;;;22.45;8.13;;;;;;;18.23;68.58;101673.38;5108766;28;20498;-46
2022/05/17 20:56:17;;;;;;;19.85;7.90;;;;;;;18.19;68.75;101676.81;5110048;28;20115;-43
2022/05/17 20:58:42;;;;;;;23.67;8.57;;;;;;;18.06;69.60;101671.47;5109713;28;20081;-45
2022/05/17 21:01:08;;;;;;;17.75;8.50;;;;;;;17.98;69.26;101667.00;5108979;28;20027;-43
2022/05/17 21:03:33;;;;;;;19.50;8.88;;;;;;;17.90;69.68;101674.69;5097790;28;20031;-44
2022/05/17 21:05:59;;;;;;;18.52;8.70;;;;;;;17.87;70.26;101666.81;5095766;28;20023;-43
2022/05/17 21:08:24;;;;;;;15.23;8.30;;;;;;;17.84;71.07;101669.41;5095389;28;20032;-44
2022/05/17 21:10:49;;;;;;;18.55;8.35;;;;;;;17.84;70.63;101672.88;5095733;28;20020;-45
2022/05/17 21:13:15;;;;;;;19.60;8.05;;;;;;;17.86;70.65;101680.75;5095296;28;20066;-44
2022/05/17 21:15:41;;;;;;;20.08;8.13;;;;;;;17.80;70.36;101680.66;5095630;28;20068;-45
2022/05/17 21:18:10;;;;;;;18.60;8.27;;;;;;;17.80;71.41;101683.25;5095767;28;20103;-43
2022/05/17 21:20:37;;;;;;;17.25;8.00;;;;;;;17.77;70.76;101687.56;5094718;28;20814;-44
2022/05/17 21:23:03;;;;;;;13.90;7.70;;;;;;;17.78;70.27;101688.47;5095885;28;20094;-44
2022/05/17 21:25:28;;;;;;;16.13;8.18;;;;;;;17.80;70.46;101691.09;5095541;28;20024;-42
2022/05/17 21:27:53;;;;;;;22.13;8.57;;;;;;;17.81;69.62;101691.09;5094779;28;20109;-44
2022/05/17 21:30:21;;;;;;;23.55;9.43;;;;;;;17.82;69.82;101692.84;5095531;28;20028;-43
2022/05/17 21:32:47;;;;;;;25.50;9.85;;;;;;;17.80;69.38;101684.13;5095259;28;20031;-44
2022/05/17 21:35:15;;;;;;;21.33;9.60;;;;;;;17.83;69.30;101685.91;5094861;28;20020;-44
2022/05/17 21:37:40;;;;;;;22.23;8.80;;;;;;;17.76;69.58;101688.41;5095040;28;20379;-44
2022/05/17 21:40:06;;;;;;;23.63;9.13;;;;;;;17.56;70.33;101689.91;5095526;28;20016;-43
2022/05/17 21:42:32;;;;;;;19.70;8.68;;;;;;;17.38;70.65;101690.50;5094591;28;20039;-45
2022/05/17 21:44:57;;;;;;;19.95;9.80;;;;;;;17.22;71.69;101690.28;5095198;28;20024;-44
2022/05/17 21:47:34;;;;;;;22.10;10.00;;;;;;;17.18;71.31;101693.66;5095332;28;20546;-43
2022/05/17 21:50:05;;;;;;;25.77;10.48;;;;;;;16.99;72.20;101689.91;5094216;28;20383;-45
2022/05/17 21:52:31;;;;;;;22.17;10.15;;;;;;;16.81;72.47;101698.25;5094815;28;20048;-45
2022/05/17 21:54:57;;;;;;;21.38;10.20;;;;;;;16.64;72.73;101690.13;5094979;28;20038;-43
2022/05/17 21:57:22;;;;;;;22.35;10.95;;;;;;;16.61;74.69;101690.94;5094280;28;20047;-43
2022/05/17 21:59:48;;;;;;;30.02;12.88;;;;;;;16.60;75.16;101689.22;5094624;28;20352;-44
2022/05/17 22:02:13;;;;;;;34.80;12.90;;;;;;;16.63;75.42;101698.81;5094804;28;20471;-44
2022/05/17 22:04:38;;;;;;;20.80;11.27;;;;;;;16.55;74.96;101708.16;5093746;28;20031;-43
2022/05/17 22:07:05;;;;;;;19.67;10.98;;;;;;;16.50;75.55;101702.91;5094865;28;20421;-44
2022/05/17 22:09:31;;;;;;;28.73;11.00;;;;;;;16.50;75.71;101712.41;5094067;28;20031;-43
2022/05/17 22:14:41;;;;;;;19.98;10.90;;;;;;;16.52;75.94;101710.72;5093681;28;20054;-43
2022/05/17 22:17:09;;;;;;;20.90;10.38;;;;;;;16.50;76.21;101708.09;5093673;28;20020;-45
2022/05/17 22:19:35;;;;;;;21.73;11.15;;;;;;;16.40;75.98;101712.25;5094684;28;20024;-43
2022/05/17 22:22:00;;;;;;;22.48;11.30;;;;;;;16.32;76.07;101703.44;5094563;28;20012;-44
2022/05/17 22:24:25;;;;;;;21.50;12.25;;;;;;;16.13;76.51;101703.03;5093754;28;20474;-45
2022/05/17 22:26:52;;;;;;;24.75;12.32;;;;;;;16.03;76.80;101701.09;5094238;28;20410;-44
2022/05/17 22:29:19;;;;;;;22.95;11.82;;;;;;;15.86;77.31;101705.06;5094344;28;20048;-43
2022/05/17 22:31:44;;;;;;;21.40;11.57;;;;;;;15.84;78.31;101705.06;5093221;28;20028;-44
2022/05/17 22:34:10;;;;;;;19.55;12.20;;;;;;;15.74;78.51;101709.13;5094196;28;20031;-43
2022/05/17 22:36:35;;;;;;;23.88;12.50;;;;;;;15.69;78.57;101700.34;5094237;28;20055;-45
2022/05/17 22:39:00;;;;;;;32.67;15.90;;;;;;;15.74;79.88;101706.53;5093460;28;20016;-45
2022/05/17 22:41:25;;;;;;;28.00;13.52;;;;;;;15.69;78.97;101715.06;5094251;28;20390;-45
2022/05/17 22:43:51;;;;;;;34.28;13.38;;;;;;;15.54;78.98;101706.06;5093875;28;20069;-44
2022/05/17 22:49:01;;;;;;;30.45;14.30;;;;;;;15.30;79.30;101714.19;5094109;28;20082;-44
2022/05/17 22:51:27;;;;;;;31.17;14.40;;;;;;;15.29;80.31;101715.88;5093690;28;20441;-43
2022/05/17 22:53:57;;;;;;;29.67;15.48;;;;;;;15.33;81.17;101722.03;5092936;28;20428;-44
2022/05/17 22:56:24;;;;;;;28.60;16.02;;;;;;;15.37;81.57;101713.47;5093952;28;20028;-45
2022/05/17 22:58:49;;;;;;;31.38;15.77;;;;;;;15.40;81.36;101717.84;5093094;28;20020;-43
2022/05/17 23:01:15;;;;;;;37.85;15.70;;;;;;;15.44;81.48;101717.97;5093962;28;20111;-43
2022/05/17 23:03:40;;;;;;;29.98;15.93;;;;;;;15.41;81.15;101715.28;5093717;28;20024;-42
2022/05/17 23:06:05;;;;;;;29.23;15.05;;;;;;;15.34;80.55;101713.41;5093003;28;20038;-46
2022/05/17 23:08:30;;;;;;;29.60;15.43;;;;;;;15.30;80.39;101715.06;5093629;28;20027;-45
2022/05/17 23:10:56;;;;;;;29.27;15.30;;;;;;;15.29;80.40;101725.41;5093442;28;20024;-44
2022/05/17 23:13:21;;;;;;;22.77;14.05;;;;;;;15.11;80.27;101715.44;5092756;28;20427;-47
2022/05/17 23:15:46;;;;;;;29.13;15.18;;;;;;;14.98;80.94;101720.31;5093502;28;20032;-45
2022/05/17 23:18:12;;;;;;;28.10;16.73;;;;;;;14.87;81.77;101719.16;5093557;28;20035;-42
2022/05/17 23:20:37;;;;;;;33.78;17.15;;;;;;;14.79;82.58;101718.09;5092477;28;20023;-41
2022/05/17 23:23:03;;;;;;;31.08;16.35;;;;;;;14.65;82.58;101713.44;5093273;28;20023;-44
2022/05/17 23:28:28;;;;;;;28.75;16.10;;;;;;;14.49;83.48;101719.00;5092978;28;20210;-41
2022/05/17 23:30:58;;;;;;;32.35;17.13;;;;;;;14.54;85.14;101716.50;5093399;28;20028;-46
2022/05/17 23:33:24;;;;;;;38.28;17.77;;;;;;;14.60;85.26;101716.69;5093357;28;20032;-42
2022/05/17 23:35:50;;;;;;;33.72;17.30;;;;;;;14.58;85.64;101718.38;5092089;28;20604;-42
2022/05/17 23:38:16;;;;;;;36.20;16.73;;;;;;;14.64;85.81;101723.75;5093132;28;20107;-45
2022/05/17 23:40:42;;;;;;;31.80;16.30;;;;;;;14.64;86.13;101714.25;5093033;28;20128;-42
2022/05/17 23:43:07;;;;;;;32.92;15.98;;;;;;;14.62;84.47;101717.63;5092517;28;20051;-43
2022/05/17 23:45:34;;;;;;;28.13;16.25;;;;;;;14.55;84.81;101723.47;5093059;28;20491;-42
2022/05/17 23:47:59;;;;;;;30.88;16.15;;;;;;;14.46;84.35;101722.38;5092117;28;20463;-41
2022/05/17 23:50:26;;;;;;;32.28;17.13;;;;;;;14.46;84.76;101724.09;5092725;28;20031;-41
2022/05/17 23:52:51;;;;;;;31.33;16.25;;;;;;;14.41;83.45;101726.56;5092656;28;20559;-43
2022/05/17 23:55:17;;;;;;;27.73;15.02;;;;;;;14.39;83.96;101733.41;5092422;28;20024;-41
2022/05/17 23:57:43;;;;;;;25.15;14.95;;;;;;;14.38;84.42;101730.78;5092919;28;20107;-42
